sensor_id;sensor_type;location;lat;lon;timestamp;temperature;humidity
61916;DHT22;47868;51.326;6.550;2023-08-31T02:00:58;13.30;99.90
61916;DHT22;47868;51.326;6.550;2023-08-31T02:03:23;13.40;99.90
61916;DHT22;47868;51.326;6.550;2023-08-31T02:08:15;13.30;99.90
61916;DHT22;47868;51.326;6.550;2023-08-31T02:10:43;13.40;99.90
61916;DHT22;47868;51.326;6.550;2023-08-31T02:13:09;13.30;99.90
61916;DHT22;47868;51.326;6.550;2023-08-31T02:15:38;13.40;99.90
61916;DHT22;47868;51.326;6.550;2023-08-31T02:18:04;13.60;99.90
61916;DHT22;47868;51.326;6.550;2023-08-31T02:20:29;13.30;99.90
61916;DHT22;47868;51.326;6.550;2023-08-31T02:22:56;13.30;99.90
61916;DHT22;47868;51.326;6.550;2023-08-31T02:25:21;13.20;99.90
61916;DHT22;47868;51.326;6.550;2023-08-31T02:27:47;13.10;99.90
61916;DHT22;47868;51.326;6.550;2023-08-31T02:30:13;13.80;99.90
61916;DHT22;47868;51.326;6.550;2023-08-31T02:32:38;13.20;99.90
61916;DHT22;47868;51.326;6.550;2023-08-31T02:35:04;13.30;99.90
61916;DHT22;47868;51.326;6.550;2023-08-31T02:37:30;13.10;99.90
61916;DHT22;47868;51.326;6.550;2023-08-31T02:39:55;13.30;99.90
61916;DHT22;47868;51.326;6.550;2023-08-31T02:42:21;13.00;99.90
61916;DHT22;47868;51.326;6.550;2023-08-31T02:44:47;13.30;99.90
61916;DHT22;47868;51.326;6.550;2023-08-31T02:47:12;13.20;99.90
61916;DHT22;47868;51.326;6.550;2023-08-31T02:49:38;13.70;99.90
61916;DHT22;47868;51.326;6.550;2023-08-31T02:52:04;13.00;99.90
61916;DHT22;47868;51.326;6.550;2023-08-31T02:54:30;13.10;99.90
61916;DHT22;47868;51.326;6.550;2023-08-31T02:56:55;13.40;99.90
61916;DHT22;47868;51.326;6.550;2023-08-31T02:59:21;13.10;99.90
61916;DHT22;47868;51.326;6.550;2023-08-31T03:01:48;13.00;99.90
61916;DHT22;47868;51.326;6.550;2023-08-31T03:04:13;13.00;99.90
61916;DHT22;47868;51.326;6.550;2023-08-31T03:06:39;13.10;99.90
61916;DHT22;47868;51.326;6.550;2023-08-31T03:09:05;12.90;99.90
61916;DHT22;47868;51.326;6.550;2023-08-31T03:11:30;12.90;99.90
61916;DHT22;47868;51.326;6.550;2023-08-31T03:13:56;13.40;99.90
61916;DHT22;47868;51.326;6.550;2023-08-31T03:16:22;12.80;99.90
61916;DHT22;47868;51.326;6.550;2023-08-31T03:21:14;12.80;99.90
61916;DHT22;47868;51.326;6.550;2023-08-31T03:23:40;12.80;99.90
61916;DHT22;47868;51.326;6.550;2023-08-31T03:26:09;12.90;99.90
61916;DHT22;47868;51.326;6.550;2023-08-31T03:28:35;13.30;99.90
61916;DHT22;47868;51.326;6.550;2023-08-31T03:31:01;12.90;99.90
61916;DHT22;47868;51.326;6.550;2023-08-31T03:33:26;12.90;99.90
61916;DHT22;47868;51.326;6.550;2023-08-31T03:35:54;13.20;99.90
61916;DHT22;47868;51.326;6.550;2023-08-31T03:38:19;13.10;99.90
61916;DHT22;47868;51.326;6.550;2023-08-31T03:40:55;13.10;99.90
61916;DHT22;47868;51.326;6.550;2023-08-31T03:43:21;13.00;99.90
61916;DHT22;47868;51.326;6.550;2023-08-31T03:45:46;12.90;99.90
61916;DHT22;47868;51.326;6.550;2023-08-31T03:48:12;12.90;99.90
61916;DHT22;47868;51.326;6.550;2023-08-31T03:50:38;12.90;99.90
61916;DHT22;47868;51.326;6.550;2023-08-31T03:53:03;13.20;99.90
61916;DHT22;47868;51.326;6.550;2023-08-31T03:55:29;13.50;99.90
61916;DHT22;47868;51.326;6.550;2023-08-31T03:57:55;12.80;99.90
61916;DHT22;47868;51.326;6.550;2023-08-31T04:00:20;12.90;99.90
61916;DHT22;47868;51.326;6.550;2023-08-31T04:02:46;12.90;99.90
61916;DHT22;47868;51.326;6.550;2023-08-31T04:05:11;12.90;99.90
61916;DHT22;47868;51.326;6.550;2023-08-31T04:07:40;12.70;99.90
61916;DHT22;47868;51.326;6.550;2023-08-31T04:10:06;12.90;99.90
61916;DHT22;47868;51.326;6.550;2023-08-31T04:12:33;12.70;99.90
61916;DHT22;47868;51.326;6.550;2023-08-31T04:15:00;13.30;99.90
61916;DHT22;47868;51.326;6.550;2023-08-31T04:17:25;13.40;99.90
61916;DHT22;47868;51.326;6.550;2023-08-31T04:19:51;12.70;99.90
61916;DHT22;47868;51.326;6.550;2023-08-31T04:22:17;13.30;99.90
61916;DHT22;47868;51.326;6.550;2023-08-31T04:27:09;12.60;99.90
61916;DHT22;47868;51.326;6.550;2023-08-31T04:29:35;13.00;99.90
61916;DHT22;47868;51.326;6.550;2023-08-31T04:32:01;12.70;99.90
61916;DHT22;47868;51.326;6.550;2023-08-31T04:34:26;12.80;99.90
61916;DHT22;47868;51.326;6.550;2023-08-31T04:36:52;13.00;99.90
61916;DHT22;47868;51.326;6.550;2023-08-31T04:39:18;12.60;99.90
61916;DHT22;47868;51.326;6.550;2023-08-31T04:41:43;12.50;99.90
61916;DHT22;47868;51.326;6.550;2023-08-31T04:44:09;12.50;99.90
61916;DHT22;47868;51.326;6.550;2023-08-31T04:46:34;12.40;99.90
61916;DHT22;47868;51.326;6.550;2023-08-31T04:49:00;12.70;99.90
61916;DHT22;47868;51.326;6.550;2023-08-31T04:51:32;12.90;99.90
61916;DHT22;47868;51.326;6.550;2023-08-31T04:53:59;12.50;99.90
61916;DHT22;47868;51.326;6.550;2023-08-31T04:56:25;12.50;99.90
61916;DHT22;47868;51.326;6.550;2023-08-31T04:58:50;12.60;99.90
61916;DHT22;47868;51.326;6.550;2023-08-31T05:01:16;12.80;99.90
61916;DHT22;47868;51.326;6.550;2023-08-31T05:03:42;12.60;99.90
61916;DHT22;47868;51.326;6.550;2023-08-31T05:06:07;12.60;99.90
61916;DHT22;47868;51.326;6.550;2023-08-31T05:10:59;12.50;99.90
61916;DHT22;47868;51.326;6.550;2023-08-31T05:13:25;12.60;99.90
61916;DHT22;47868;51.326;6.550;2023-08-31T05:15:50;13.10;99.90
61916;DHT22;47868;51.326;6.550;2023-08-31T05:18:16;12.70;99.90
61916;DHT22;47868;51.326;6.550;2023-08-31T05:20:45;12.70;99.90
61916;DHT22;47868;51.326;6.550;2023-08-31T05:23:11;13.00;99.90
61916;DHT22;47868;51.326;6.550;2023-08-31T05:25:42;12.70;99.90
61916;DHT22;47868;51.326;6.550;2023-08-31T05:28:07;12.70;99.90
61916;DHT22;47868;51.326;6.550;2023-08-31T05:30:33;12.60;99.90
61916;DHT22;47868;51.326;6.550;2023-08-31T05:33:00;12.60;99.90
61916;DHT22;47868;51.326;6.550;2023-08-31T05:35:26;12.60;99.90
61916;DHT22;47868;51.326;6.550;2023-08-31T05:37:51;13.30;99.90
61916;DHT22;47868;51.326;6.550;2023-08-31T05:40:17;12.70;99.90
61916;DHT22;47868;51.326;6.550;2023-08-31T05:42:43;12.70;99.90
61916;DHT22;47868;51.326;6.550;2023-08-31T05:45:09;12.90;99.90
61916;DHT22;47868;51.326;6.550;2023-08-31T05:47:35;12.80;99.90
61916;DHT22;47868;51.326;6.550;2023-08-31T05:50:01;12.80;99.90
61916;DHT22;47868;51.326;6.550;2023-08-31T05:52:28;12.80;99.90
61916;DHT22;47868;51.326;6.550;2023-08-31T05:54:53;13.00;99.90
61916;DHT22;47868;51.326;6.550;2023-08-31T05:57:19;12.90;99.90
61916;DHT22;47868;51.326;6.550;2023-08-31T05:59:47;13.00;99.90
61916;DHT22;47868;51.326;6.550;2023-08-31T06:02:13;12.90;99.90
61916;DHT22;47868;51.326;6.550;2023-08-31T06:04:38;12.90;99.90
61916;DHT22;47868;51.326;6.550;2023-08-31T06:07:04;13.00;99.90
61916;DHT22;47868;51.326;6.550;2023-08-31T06:11:56;13.00;99.90
61916;DHT22;47868;51.326;6.550;2023-08-31T06:14:22;13.10;99.90
61916;DHT22;47868;51.326;6.550;2023-08-31T06:16:48;13.20;99.90
61916;DHT22;47868;51.326;6.550;2023-08-31T06:19:13;13.20;99.90
61916;DHT22;47868;51.326;6.550;2023-08-31T06:21:41;13.20;99.90
61916;DHT22;47868;51.326;6.550;2023-08-31T06:24:07;13.30;99.90
61916;DHT22;47868;51.326;6.550;2023-08-31T06:26:35;13.40;99.90
61916;DHT22;47868;51.326;6.550;2023-08-31T06:29:01;13.30;99.90
61916;DHT22;47868;51.326;6.550;2023-08-31T06:31:31;13.30;99.90
61916;DHT22;47868;51.326;6.550;2023-08-31T06:33:57;13.40;99.90
61916;DHT22;47868;51.326;6.550;2023-08-31T06:36:24;13.50;99.90
61916;DHT22;47868;51.326;6.550;2023-08-31T06:38:49;13.50;99.90
61916;DHT22;47868;51.326;6.550;2023-08-31T06:41:15;13.50;99.90
61916;DHT22;47868;51.326;6.550;2023-08-31T06:43:41;13.60;99.90
61916;DHT22;47868;51.326;6.550;2023-08-31T06:46:06;13.80;99.90
61916;DHT22;47868;51.326;6.550;2023-08-31T06:48:53;14.10;99.90
61916;DHT22;47868;51.326;6.550;2023-08-31T06:55:49;13.90;99.90
61916;DHT22;47868;51.326;6.550;2023-08-31T06:58:34;14.00;99.90
61916;DHT22;47868;51.326;6.550;2023-08-31T07:01:07;14.30;99.90
61916;DHT22;47868;51.326;6.550;2023-08-31T07:03:32;15.00;99.90
61916;DHT22;47868;51.326;6.550;2023-08-31T07:06:08;14.30;99.90
61916;DHT22;47868;51.326;6.550;2023-08-31T07:08:43;14.20;99.90
61916;DHT22;47868;51.326;6.550;2023-08-31T07:11:11;14.30;99.90
61916;DHT22;47868;51.326;6.550;2023-08-31T07:13:37;14.90;99.90
61916;DHT22;47868;51.326;6.550;2023-08-31T07:16:02;14.50;99.90
61916;DHT22;47868;51.326;6.550;2023-08-31T07:18:31;14.50;99.90
61916;DHT22;47868;51.326;6.550;2023-08-31T07:21:05;14.70;99.90
61916;DHT22;47868;51.326;6.550;2023-08-31T07:23:42;14.70;99.90
61916;DHT22;47868;51.326;6.550;2023-08-31T07:26:40;14.80;99.90
61916;DHT22;47868;51.326;6.550;2023-08-31T07:29:14;14.90;99.90
61916;DHT22;47868;51.326;6.550;2023-08-31T07:32:07;14.80;99.90
61916;DHT22;47868;51.326;6.550;2023-08-31T07:34:38;14.80;99.90
61916;DHT22;47868;51.326;6.550;2023-08-31T08:04:21;15.70;99.90
61916;DHT22;47868;51.326;6.550;2023-08-31T08:10:26;16.20;99.90
61916;DHT22;47868;51.326;6.550;2023-08-31T08:19:54;16.60;99.90
61916;DHT22;47868;51.326;6.550;2023-08-31T08:23:09;16.80;99.90
61916;DHT22;47868;51.326;6.550;2023-08-31T08:35:07;17.10;99.90
61916;DHT22;47868;51.326;6.550;2023-08-31T08:37:33;17.40;99.90
61916;DHT22;47868;51.326;6.550;2023-08-31T08:39:59;17.50;99.90
61916;DHT22;47868;51.326;6.550;2023-08-31T08:42:25;17.50;99.90
61916;DHT22;47868;51.326;6.550;2023-08-31T08:44:52;17.90;99.90
61916;DHT22;47868;51.326;6.550;2023-08-31T08:47:18;18.20;99.90
61916;DHT22;47868;51.326;6.550;2023-08-31T08:49:44;18.00;99.90
61916;DHT22;47868;51.326;6.550;2023-08-31T08:52:10;18.20;99.90
61916;DHT22;47868;51.326;6.550;2023-08-31T08:54:37;18.30;99.90
61916;DHT22;47868;51.326;6.550;2023-08-31T08:57:04;18.40;99.90
61916;DHT22;47868;51.326;6.550;2023-08-31T08:59:31;18.30;99.90
61916;DHT22;47868;51.326;6.550;2023-08-31T09:01:56;19.80;99.90
61916;DHT22;47868;51.326;6.550;2023-08-31T09:04:22;18.20;99.90
61916;DHT22;47868;51.326;6.550;2023-08-31T09:06:50;18.70;99.90
61916;DHT22;47868;51.326;6.550;2023-08-31T09:09:15;18.70;99.90
61916;DHT22;47868;51.326;6.550;2023-08-31T09:11:42;18.30;99.90
61916;DHT22;47868;51.326;6.550;2023-08-31T09:14:19;19.20;99.90
61916;DHT22;47868;51.326;6.550;2023-08-31T09:16:46;18.50;99.90
61916;DHT22;47868;51.326;6.550;2023-08-31T09:19:22;18.60;99.90
61916;DHT22;47868;51.326;6.550;2023-08-31T09:21:52;18.60;99.90
61916;DHT22;47868;51.326;6.550;2023-08-31T09:24:18;18.60;99.90
61916;DHT22;47868;51.326;6.550;2023-08-31T09:26:45;19.00;99.90
61916;DHT22;47868;51.326;6.550;2023-08-31T09:29:13;18.90;99.90
61916;DHT22;47868;51.326;6.550;2023-08-31T09:31:43;18.80;99.90
61916;DHT22;47868;51.326;6.550;2023-08-31T09:34:13;18.90;99.90
61916;DHT22;47868;51.326;6.550;2023-08-31T09:36:39;18.90;99.90
61916;DHT22;47868;51.326;6.550;2023-08-31T09:39:08;19.20;99.90
61916;DHT22;47868;51.326;6.550;2023-08-31T09:41:35;19.30;99.90
61916;DHT22;47868;51.326;6.550;2023-08-31T09:44:18;19.30;99.90
61916;DHT22;47868;51.326;6.550;2023-08-31T09:46:44;19.30;99.90
61916;DHT22;47868;51.326;6.550;2023-08-31T09:49:14;19.60;99.90
61916;DHT22;47868;51.326;6.550;2023-08-31T09:51:45;19.60;99.90
61916;DHT22;47868;51.326;6.550;2023-08-31T09:54:21;19.70;99.90
61916;DHT22;47868;51.326;6.550;2023-08-31T09:56:48;19.80;99.90
61916;DHT22;47868;51.326;6.550;2023-08-31T09:59:15;20.30;99.90
61916;DHT22;47868;51.326;6.550;2023-08-31T10:01:43;20.20;99.90
61916;DHT22;47868;51.326;6.550;2023-08-31T10:04:09;20.20;99.90
61916;DHT22;47868;51.326;6.550;2023-08-31T10:06:41;20.00;99.90
61916;DHT22;47868;51.326;6.550;2023-08-31T10:09:08;20.10;99.90
61916;DHT22;47868;51.326;6.550;2023-08-31T10:11:38;19.90;99.90
61916;DHT22;47868;51.326;6.550;2023-08-31T10:14:04;20.00;99.90
61916;DHT22;47868;51.326;6.550;2023-08-31T10:18:56;19.50;99.90
61916;DHT22;47868;51.326;6.550;2023-08-31T10:21:23;20.30;99.90
61916;DHT22;47868;51.326;6.550;2023-08-31T10:23:49;19.50;99.90
61916;DHT22;47868;51.326;6.550;2023-08-31T10:26:29;19.80;99.90
61916;DHT22;47868;51.326;6.550;2023-08-31T10:28:55;19.90;99.90
61916;DHT22;47868;51.326;6.550;2023-08-31T10:33:55;20.50;99.90
61916;DHT22;47868;51.326;6.550;2023-08-31T10:36:55;20.50;99.90
61916;DHT22;47868;51.326;6.550;2023-08-31T10:39:19;20.50;99.90
61916;DHT22;47868;51.326;6.550;2023-08-31T10:41:55;20.50;99.90
61916;DHT22;47868;51.326;6.550;2023-08-31T10:44:24;20.70;99.90
61916;DHT22;47868;51.326;6.550;2023-08-31T10:46:51;20.90;99.90
61916;DHT22;47868;51.326;6.550;2023-08-31T10:49:21;21.00;99.90
61916;DHT22;47868;51.326;6.550;2023-08-31T10:54:22;20.90;99.90
61916;DHT22;47868;51.326;6.550;2023-08-31T10:59:42;21.30;99.90
61916;DHT22;47868;51.326;6.550;2023-08-31T11:02:08;21.20;99.90
61916;DHT22;47868;51.326;6.550;2023-08-31T11:04:54;21.40;99.90
61916;DHT22;47868;51.326;6.550;2023-08-31T11:07:23;21.60;99.90
61916;DHT22;47868;51.326;6.550;2023-08-31T11:09:49;21.50;99.90
61916;DHT22;47868;51.326;6.550;2023-08-31T11:12:15;21.30;99.90
61916;DHT22;47868;51.326;6.550;2023-08-31T11:14:41;21.60;99.90
61916;DHT22;47868;51.326;6.550;2023-08-31T11:17:07;20.90;99.90
61916;DHT22;47868;51.326;6.550;2023-08-31T11:19:33;19.60;99.90
61916;DHT22;47868;51.326;6.550;2023-08-31T11:22:03;20.40;99.90
61916;DHT22;47868;51.326;6.550;2023-08-31T11:24:30;20.00;99.90
61916;DHT22;47868;51.326;6.550;2023-08-31T11:26:56;20.80;99.90
61916;DHT22;47868;51.326;6.550;2023-08-31T11:29:21;19.50;99.90
61916;DHT22;47868;51.326;6.550;2023-08-31T11:31:47;19.70;99.90
61916;DHT22;47868;51.326;6.550;2023-08-31T11:34:18;19.40;99.90
61916;DHT22;47868;51.326;6.550;2023-08-31T11:36:45;20.10;99.90
61916;DHT22;47868;51.326;6.550;2023-08-31T11:39:12;20.80;99.90
